sensor_id;sensor_type;location;lat;lon;timestamp;P1;durP1;ratioP1;P2;durP2;ratioP2
36817;SDS011;22761;51.542;16.450;2023-08-30T00:01:12;7.20;;;6.00;;
36817;SDS011;22761;51.542;16.450;2023-08-30T00:03:40;6.20;;;5.60;;
36817;SDS011;22761;51.542;16.450;2023-08-30T00:06:07;7.20;;;5.40;;
36817;SDS011;22761;51.542;16.450;2023-08-30T00:08:34;9.50;;;7.20;;
36817;SDS011;22761;51.542;16.450;2023-08-30T00:11:01;6.80;;;6.10;;
36817;SDS011;22761;51.542;16.450;2023-08-30T00:13:30;7.40;;;5.50;;
36817;SDS011;22761;51.542;16.450;2023-08-30T00:15:59;4.60;;;4.10;;
36817;SDS011;22761;51.542;16.450;2023-08-30T00:18:26;4.30;;;3.90;;
36817;SDS011;22761;51.542;16.450;2023-08-30T00:20:53;4.40;;;3.40;;
36817;SDS011;22761;51.542;16.450;2023-08-30T00:23:20;4.00;;;3.20;;
36817;SDS011;22761;51.542;16.450;2023-08-30T00:25:47;3.90;;;3.40;;
36817;SDS011;22761;51.542;16.450;2023-08-30T00:28:14;3.00;;;2.70;;
36817;SDS011;22761;51.542;16.450;2023-08-30T00:30:41;4.10;;;3.10;;
36817;SDS011;22761;51.542;16.450;2023-08-30T00:33:08;2.60;;;2.40;;
36817;SDS011;22761;51.542;16.450;2023-08-30T00:35:35;3.40;;;2.20;;
36817;SDS011;22761;51.542;16.450;2023-08-30T00:38:02;3.30;;;2.50;;
36817;SDS011;22761;51.542;16.450;2023-08-30T00:40:37;5.10;;;2.40;;
36817;SDS011;22761;51.542;16.450;2023-08-30T00:43:05;3.20;;;2.30;;
36817;SDS011;22761;51.542;16.450;2023-08-30T00:45:33;4.20;;;2.80;;
36817;SDS011;22761;51.542;16.450;2023-08-30T00:48:01;2.60;;;2.00;;
36817;SDS011;22761;51.542;16.450;2023-08-30T00:50:28;3.20;;;2.20;;
36817;SDS011;22761;51.542;16.450;2023-08-30T00:52:55;3.30;;;2.20;;
36817;SDS011;22761;51.542;16.450;2023-08-30T00:55:22;2.60;;;2.30;;
36817;SDS011;22761;51.542;16.450;2023-08-30T00:57:49;3.20;;;2.00;;
36817;SDS011;22761;51.542;16.450;2023-08-30T01:00:16;3.70;;;2.20;;
36817;SDS011;22761;51.542;16.450;2023-08-30T01:02:44;3.20;;;1.90;;
36817;SDS011;22761;51.542;16.450;2023-08-30T01:05:11;4.20;;;1.90;;
36817;SDS011;22761;51.542;16.450;2023-08-30T01:07:38;2.20;;;1.60;;
36817;SDS011;22761;51.542;16.450;2023-08-30T01:10:06;3.30;;;1.60;;
36817;SDS011;22761;51.542;16.450;2023-08-30T01:12:36;1.80;;;1.40;;
36817;SDS011;22761;51.542;16.450;2023-08-30T01:15:16;1.40;;;1.20;;
36817;SDS011;22761;51.542;16.450;2023-08-30T01:17:50;2.60;;;1.30;;
36817;SDS011;22761;51.542;16.450;2023-08-30T01:20:19;1.10;;;1.00;;
36817;SDS011;22761;51.542;16.450;2023-08-30T01:25:27;1.90;;;1.30;;
36817;SDS011;22761;51.542;16.450;2023-08-30T01:28:00;3.20;;;1.20;;
36817;SDS011;22761;51.542;16.450;2023-08-30T01:30:29;2.00;;;1.20;;
36817;SDS011;22761;51.542;16.450;2023-08-30T01:33:00;1.20;;;1.10;;
36817;SDS011;22761;51.542;16.450;2023-08-30T01:35:29;5.00;;;1.20;;
36817;SDS011;22761;51.542;16.450;2023-08-30T01:37:59;3.50;;;1.00;;
36817;SDS011;22761;51.542;16.450;2023-08-30T01:40:28;1.30;;;0.80;;
36817;SDS011;22761;51.542;16.450;2023-08-30T01:42:56;1.70;;;1.00;;
36817;SDS011;22761;51.542;16.450;2023-08-30T01:45:24;1.80;;;0.90;;
36817;SDS011;22761;51.542;16.450;2023-08-30T01:47:52;2.20;;;1.10;;
36817;SDS011;22761;51.542;16.450;2023-08-30T01:50:19;1.70;;;1.00;;
36817;SDS011;22761;51.542;16.450;2023-08-30T01:52:46;1.60;;;1.00;;
36817;SDS011;22761;51.542;16.450;2023-08-30T01:55:14;2.00;;;1.00;;
36817;SDS011;22761;51.542;16.450;2023-08-30T01:57:42;2.60;;;1.20;;
36817;SDS011;22761;51.542;16.450;2023-08-30T02:00:09;3.30;;;1.40;;
36817;SDS011;22761;51.542;16.450;2023-08-30T02:02:42;2.00;;;0.80;;
36817;SDS011;22761;51.542;16.450;2023-08-30T02:05:09;1.80;;;1.00;;
36817;SDS011;22761;51.542;16.450;2023-08-30T02:10:23;1.70;;;1.00;;
36817;SDS011;22761;51.542;16.450;2023-08-30T02:12:52;1.30;;;0.70;;
36817;SDS011;22761;51.542;16.450;2023-08-30T02:15:21;1.80;;;1.10;;
36817;SDS011;22761;51.542;16.450;2023-08-30T02:17:49;2.00;;;1.20;;
36817;SDS011;22761;51.542;16.450;2023-08-30T02:20:17;1.80;;;1.00;;
36817;SDS011;22761;51.542;16.450;2023-08-30T02:22:44;2.00;;;0.70;;
36817;SDS011;22761;51.542;16.450;2023-08-30T02:25:11;1.30;;;0.70;;
36817;SDS011;22761;51.542;16.450;2023-08-30T02:27:38;1.90;;;1.40;;
36817;SDS011;22761;51.542;16.450;2023-08-30T02:30:05;2.90;;;0.90;;
36817;SDS011;22761;51.542;16.450;2023-08-30T02:32:33;2.30;;;0.80;;
36817;SDS011;22761;51.542;16.450;2023-08-30T02:35:01;3.60;;;0.90;;
36817;SDS011;22761;51.542;16.450;2023-08-30T02:37:29;1.60;;;0.80;;
36817;SDS011;22761;51.542;16.450;2023-08-30T02:39:56;1.20;;;0.70;;
36817;SDS011;22761;51.542;16.450;2023-08-30T02:42:23;1.40;;;0.80;;
36817;SDS011;22761;51.542;16.450;2023-08-30T02:44:50;2.10;;;1.10;;
36817;SDS011;22761;51.542;16.450;2023-08-30T02:47:16;1.90;;;0.90;;
36817;SDS011;22761;51.542;16.450;2023-08-30T02:49:43;2.50;;;0.60;;
36817;SDS011;22761;51.542;16.450;2023-08-30T02:52:10;0.80;;;0.80;;
36817;SDS011;22761;51.542;16.450;2023-08-30T02:54:37;1.90;;;0.60;;
36817;SDS011;22761;51.542;16.450;2023-08-30T02:57:04;1.40;;;0.90;;
36817;SDS011;22761;51.542;16.450;2023-08-30T02:59:31;1.70;;;0.80;;
36817;SDS011;22761;51.542;16.450;2023-08-30T03:02:02;1.70;;;1.10;;
36817;SDS011;22761;51.542;16.450;2023-08-30T03:04:29;2.00;;;1.10;;
36817;SDS011;22761;51.542;16.450;2023-08-30T03:06:57;2.00;;;1.40;;
36817;SDS011;22761;51.542;16.450;2023-08-30T03:09:25;1.70;;;0.90;;
36817;SDS011;22761;51.542;16.450;2023-08-30T03:11:51;1.80;;;0.80;;
36817;SDS011;22761;51.542;16.450;2023-08-30T03:14:18;2.30;;;0.90;;
36817;SDS011;22761;51.542;16.450;2023-08-30T03:16:45;2.10;;;1.00;;
36817;SDS011;22761;51.542;16.450;2023-08-30T03:19:13;1.70;;;0.80;;
36817;SDS011;22761;51.542;16.450;2023-08-30T03:21:44;1.80;;;1.20;;
36817;SDS011;22761;51.542;16.450;2023-08-30T03:24:11;1.50;;;1.00;;
36817;SDS011;22761;51.542;16.450;2023-08-30T03:26:38;2.20;;;1.10;;
36817;SDS011;22761;51.542;16.450;2023-08-30T03:29:05;1.80;;;1.60;;
36817;SDS011;22761;51.542;16.450;2023-08-30T03:31:32;2.90;;;1.70;;
36817;SDS011;22761;51.542;16.450;2023-08-30T03:34:01;4.30;;;1.80;;
36817;SDS011;22761;51.542;16.450;2023-08-30T03:36:28;2.80;;;2.10;;
36817;SDS011;22761;51.542;16.450;2023-08-30T03:38:55;3.00;;;1.80;;
36817;SDS011;22761;51.542;16.450;2023-08-30T03:41:22;3.40;;;2.20;;
36817;SDS011;22761;51.542;16.450;2023-08-30T03:43:49;6.20;;;2.60;;
36817;SDS011;22761;51.542;16.450;2023-08-30T03:46:16;3.00;;;2.00;;
36817;SDS011;22761;51.542;16.450;2023-08-30T03:48:43;2.70;;;2.40;;
36817;SDS011;22761;51.542;16.450;2023-08-30T03:51:10;2.40;;;2.00;;
36817;SDS011;22761;51.542;16.450;2023-08-30T03:53:38;2.30;;;2.00;;
36817;SDS011;22761;51.542;16.450;2023-08-30T03:56:05;3.60;;;1.80;;
36817;SDS011;22761;51.542;16.450;2023-08-30T03:58:32;1.90;;;1.70;;
36817;SDS011;22761;51.542;16.450;2023-08-30T04:00:59;3.20;;;1.60;;
36817;SDS011;22761;51.542;16.450;2023-08-30T04:03:27;2.00;;;1.50;;
36817;SDS011;22761;51.542;16.450;2023-08-30T04:05:55;1.60;;;1.50;;
36817;SDS011;22761;51.542;16.450;2023-08-30T04:08:23;3.40;;;1.60;;
36817;SDS011;22761;51.542;16.450;2023-08-30T04:10:51;2.20;;;1.50;;
36817;SDS011;22761;51.542;16.450;2023-08-30T04:13:19;3.00;;;1.80;;
36817;SDS011;22761;51.542;16.450;2023-08-30T04:15:47;2.60;;;1.70;;
36817;SDS011;22761;51.542;16.450;2023-08-30T04:18:14;4.30;;;1.80;;
36817;SDS011;22761;51.542;16.450;2023-08-30T04:20:44;3.20;;;2.00;;
36817;SDS011;22761;51.542;16.450;2023-08-30T04:23:12;2.10;;;1.50;;
36817;SDS011;22761;51.542;16.450;2023-08-30T04:25:40;1.70;;;1.20;;
36817;SDS011;22761;51.542;16.450;2023-08-30T04:28:07;2.00;;;1.30;;
36817;SDS011;22761;51.542;16.450;2023-08-30T04:30:36;2.30;;;1.00;;
36817;SDS011;22761;51.542;16.450;2023-08-30T04:33:04;2.30;;;1.10;;
36817;SDS011;22761;51.542;16.450;2023-08-30T04:35:32;1.60;;;1.40;;
36817;SDS011;22761;51.542;16.450;2023-08-30T04:38:00;2.40;;;1.60;;
36817;SDS011;22761;51.542;16.450;2023-08-30T04:40:28;1.60;;;1.30;;
36817;SDS011;22761;51.542;16.450;2023-08-30T04:42:58;2.00;;;1.80;;
36817;SDS011;22761;51.542;16.450;2023-08-30T04:45:26;2.70;;;2.10;;
36817;SDS011;22761;51.542;16.450;2023-08-30T04:47:54;3.10;;;2.60;;
36817;SDS011;22761;51.542;16.450;2023-08-30T04:50:21;3.00;;;2.50;;
36817;SDS011;22761;51.542;16.450;2023-08-30T04:52:49;4.10;;;2.80;;
36817;SDS011;22761;51.542;16.450;2023-08-30T04:55:17;4.60;;;3.00;;
36817;SDS011;22761;51.542;16.450;2023-08-30T04:57:44;3.80;;;2.30;;
36817;SDS011;22761;51.542;16.450;2023-08-30T05:00:13;3.80;;;2.20;;
36817;SDS011;22761;51.542;16.450;2023-08-30T05:02:41;3.20;;;1.90;;
36817;SDS011;22761;51.542;16.450;2023-08-30T05:05:10;1.90;;;1.30;;
36817;SDS011;22761;51.542;16.450;2023-08-30T05:07:37;2.40;;;1.40;;
36817;SDS011;22761;51.542;16.450;2023-08-30T05:10:05;1.20;;;0.90;;
36817;SDS011;22761;51.542;16.450;2023-08-30T05:12:36;1.70;;;1.00;;
36817;SDS011;22761;51.542;16.450;2023-08-30T05:15:03;0.80;;;0.80;;
36817;SDS011;22761;51.542;16.450;2023-08-30T05:17:31;0.70;;;0.60;;
36817;SDS011;22761;51.542;16.450;2023-08-30T05:19:58;0.90;;;0.90;;
36817;SDS011;22761;51.542;16.450;2023-08-30T05:22:25;2.90;;;0.70;;
36817;SDS011;22761;51.542;16.450;2023-08-30T05:24:52;1.20;;;0.70;;
36817;SDS011;22761;51.542;16.450;2023-08-30T05:27:19;1.60;;;0.50;;
36817;SDS011;22761;51.542;16.450;2023-08-30T05:29:47;0.90;;;0.60;;
36817;SDS011;22761;51.542;16.450;2023-08-30T05:32:15;1.60;;;0.80;;
36817;SDS011;22761;51.542;16.450;2023-08-30T05:35:05;1.70;;;1.20;;
36817;SDS011;22761;51.542;16.450;2023-08-30T05:37:51;2.60;;;1.30;;
36817;SDS011;22761;51.542;16.450;2023-08-30T05:40:33;1.30;;;0.80;;
36817;SDS011;22761;51.542;16.450;2023-08-30T05:43:02;0.60;;;0.50;;
36817;SDS011;22761;51.542;16.450;2023-08-30T05:45:29;0.60;;;0.60;;
36817;SDS011;22761;51.542;16.450;2023-08-30T05:47:56;0.30;;;0.30;;
36817;SDS011;22761;51.542;16.450;2023-08-30T05:50:22;1.20;;;0.50;;
36817;SDS011;22761;51.542;16.450;2023-08-30T05:52:49;0.70;;;0.60;;
36817;SDS011;22761;51.542;16.450;2023-08-30T05:55:18;2.00;;;0.70;;
36817;SDS011;22761;51.542;16.450;2023-08-30T05:57:44;2.60;;;2.30;;
36817;SDS011;22761;51.542;16.450;2023-08-30T06:00:12;2.80;;;2.60;;
36817;SDS011;22761;51.542;16.450;2023-08-30T06:02:40;3.20;;;2.50;;
36817;SDS011;22761;51.542;16.450;2023-08-30T06:05:07;2.30;;;1.60;;
36817;SDS011;22761;51.542;16.450;2023-08-30T06:07:35;3.30;;;2.80;;
36817;SDS011;22761;51.542;16.450;2023-08-30T06:10:02;3.10;;;2.80;;
36817;SDS011;22761;51.542;16.450;2023-08-30T06:12:29;3.80;;;3.40;;
36817;SDS011;22761;51.542;16.450;2023-08-30T06:14:56;4.10;;;3.60;;
36817;SDS011;22761;51.542;16.450;2023-08-30T06:17:23;4.70;;;4.10;;
36817;SDS011;22761;51.542;16.450;2023-08-30T06:19:50;4.60;;;3.90;;
36817;SDS011;22761;51.542;16.450;2023-08-30T06:22:16;3.70;;;3.40;;
36817;SDS011;22761;51.542;16.450;2023-08-30T06:24:43;2.80;;;2.40;;
36817;SDS011;22761;51.542;16.450;2023-08-30T06:27:10;2.40;;;1.90;;
36817;SDS011;22761;51.542;16.450;2023-08-30T06:29:37;2.50;;;2.10;;
36817;SDS011;22761;51.542;16.450;2023-08-30T06:32:04;2.60;;;1.90;;
36817;SDS011;22761;51.542;16.450;2023-08-30T06:34:32;5.50;;;3.50;;
36817;SDS011;22761;51.542;16.450;2023-08-30T06:36:58;4.80;;;3.60;;
36817;SDS011;22761;51.542;16.450;2023-08-30T06:39:25;5.50;;;3.90;;
36817;SDS011;22761;51.542;16.450;2023-08-30T06:41:59;7.20;;;5.40;;
36817;SDS011;22761;51.542;16.450;2023-08-30T06:44:27;6.40;;;4.30;;
36817;SDS011;22761;51.542;16.450;2023-08-30T06:46:56;6.00;;;4.30;;
36817;SDS011;22761;51.542;16.450;2023-08-30T06:49:24;6.30;;;5.00;;
36817;SDS011;22761;51.542;16.450;2023-08-30T06:51:51;5.40;;;4.20;;
36817;SDS011;22761;51.542;16.450;2023-08-30T06:54:18;3.80;;;3.20;;
36817;SDS011;22761;51.542;16.450;2023-08-30T06:56:56;4.90;;;3.20;;
36817;SDS011;22761;51.542;16.450;2023-08-30T06:59:27;3.90;;;3.30;;
36817;SDS011;22761;51.542;16.450;2023-08-30T07:01:54;5.30;;;3.70;;
36817;SDS011;22761;51.542;16.450;2023-08-30T07:04:21;5.40;;;3.70;;
36817;SDS011;22761;51.542;16.450;2023-08-30T07:06:48;4.20;;;3.10;;
36817;SDS011;22761;51.542;16.450;2023-08-30T07:09:15;4.20;;;3.30;;
36817;SDS011;22761;51.542;16.450;2023-08-30T07:11:43;7.20;;;3.50;;
36817;SDS011;22761;51.542;16.450;2023-08-30T07:16:41;5.10;;;3.00;;
36817;SDS011;22761;51.542;16.450;2023-08-30T07:19:07;3.90;;;2.90;;
36817;SDS011;22761;51.542;16.450;2023-08-30T07:21:36;4.00;;;2.70;;
36817;SDS011;22761;51.542;16.450;2023-08-30T07:24:06;3.50;;;2.40;;
36817;SDS011;22761;51.542;16.450;2023-08-30T07:26:33;2.80;;;2.30;;
36817;SDS011;22761;51.542;16.450;2023-08-30T07:29:00;3.10;;;2.00;;
36817;SDS011;22761;51.542;16.450;2023-08-30T07:31:27;4.30;;;1.90;;
36817;SDS011;22761;51.542;16.450;2023-08-30T07:33:54;2.90;;;1.60;;
36817;SDS011;22761;51.542;16.450;2023-08-30T07:36:22;4.80;;;1.60;;
36817;SDS011;22761;51.542;16.450;2023-08-30T07:39:03;1.60;;;1.30;;
36817;SDS011;22761;51.542;16.450;2023-08-30T07:41:30;2.00;;;1.40;;
36817;SDS011;22761;51.542;16.450;2023-08-30T07:44:00;2.00;;;1.50;;
36817;SDS011;22761;51.542;16.450;2023-08-30T07:46:27;1.10;;;1.00;;
36817;SDS011;22761;51.542;16.450;2023-08-30T07:48:55;5.00;;;4.30;;
36817;SDS011;22761;51.542;16.450;2023-08-30T07:51:22;1.80;;;0.80;;
36817;SDS011;22761;51.542;16.450;2023-08-30T07:53:49;2.40;;;1.40;;
36817;SDS011;22761;51.542;16.450;2023-08-30T07:56:15;2.00;;;0.80;;
36817;SDS011;22761;51.542;16.450;2023-08-30T07:58:42;2.50;;;1.20;;
36817;SDS011;22761;51.542;16.450;2023-08-30T08:01:09;0.50;;;0.50;;
36817;SDS011;22761;51.542;16.450;2023-08-30T08:03:36;15.40;;;8.80;;
36817;SDS011;22761;51.542;16.450;2023-08-30T08:06:11;7.90;;;6.00;;
36817;SDS011;22761;51.542;16.450;2023-08-30T08:08:38;2.00;;;0.90;;
36817;SDS011;22761;51.542;16.450;2023-08-30T08:11:05;10.10;;;3.50;;
36817;SDS011;22761;51.542;16.450;2023-08-30T08:13:32;0.90;;;0.80;;
36817;SDS011;22761;51.542;16.450;2023-08-30T08:15:59;2.20;;;1.90;;
36817;SDS011;22761;51.542;16.450;2023-08-30T08:18:26;3.50;;;1.70;;
36817;SDS011;22761;51.542;16.450;2023-08-30T08:20:53;7.60;;;1.90;;
36817;SDS011;22761;51.542;16.450;2023-08-30T08:23:20;0.60;;;0.30;;
36817;SDS011;22761;51.542;16.450;2023-08-30T08:25:47;0.50;;;0.40;;
36817;SDS011;22761;51.542;16.450;2023-08-30T08:28:14;0.30;;;0.30;;
36817;SDS011;22761;51.542;16.450;2023-08-30T08:30:42;1.30;;;0.50;;
36817;SDS011;22761;51.542;16.450;2023-08-30T08:33:11;0.20;;;0.20;;
36817;SDS011;22761;51.542;16.450;2023-08-30T08:35:39;0.60;;;0.20;;
36817;SDS011;22761;51.542;16.450;2023-08-30T08:38:06;0.70;;;0.30;;
36817;SDS011;22761;51.542;16.450;2023-08-30T08:40:36;0.50;;;0.30;;
36817;SDS011;22761;51.542;16.450;2023-08-30T08:43:10;0.20;;;0.20;;
36817;SDS011;22761;51.542;16.450;2023-08-30T08:45:38;1.50;;;0.70;;
36817;SDS011;22761;51.542;16.450;2023-08-30T08:48:06;1.00;;;0.50;;
36817;SDS011;22761;51.542;16.450;2023-08-30T08:50:35;0.30;;;0.20;;
36817;SDS011;22761;51.542;16.450;2023-08-30T08:53:02;0.80;;;0.60;;
36817;SDS011;22761;51.542;16.450;2023-08-30T08:55:30;1.50;;;0.30;;
36817;SDS011;22761;51.542;16.450;2023-08-30T08:57:58;0.30;;;0.20;;
36817;SDS011;22761;51.542;16.450;2023-08-30T09:00:26;1.30;;;0.40;;
36817;SDS011;22761;51.542;16.450;2023-08-30T09:02:54;1.30;;;0.90;;
36817;SDS011;22761;51.542;16.450;2023-08-30T09:05:31;0.50;;;0.40;;
36817;SDS011;22761;51.542;16.450;2023-08-30T09:07:58;1.20;;;0.50;;
36817;SDS011;22761;51.542;16.450;2023-08-30T09:10:25;1.20;;;0.40;;
36817;SDS011;22761;51.542;16.450;2023-08-30T09:12:52;1.60;;;0.50;;
36817;SDS011;22761;51.542;16.450;2023-08-30T09:15:19;0.20;;;0.10;;
36817;SDS011;22761;51.542;16.450;2023-08-30T09:17:48;0.40;;;0.20;;
36817;SDS011;22761;51.542;16.450;2023-08-30T09:20:15;1.10;;;0.40;;
36817;SDS011;22761;51.542;16.450;2023-08-30T09:22:42;1.20;;;0.40;;
36817;SDS011;22761;51.542;16.450;2023-08-30T09:25:10;0.30;;;0.20;;
36817;SDS011;22761;51.542;16.450;2023-08-30T09:27:38;1.00;;;0.30;;
36817;SDS011;22761;51.542;16.450;2023-08-30T09:30:08;0.20;;;0.10;;
36817;SDS011;22761;51.542;16.450;2023-08-30T09:32:40;0.40;;;0.20;;
36817;SDS011;22761;51.542;16.450;2023-08-30T09:35:11;0.70;;;0.40;;
36817;SDS011;22761;51.542;16.450;2023-08-30T09:37:38;0.30;;;0.30;;
36817;SDS011;22761;51.542;16.450;2023-08-30T09:40:05;0.60;;;0.20;;
36817;SDS011;22761;51.542;16.450;2023-08-30T09:42:32;0.70;;;0.30;;
36817;SDS011;22761;51.542;16.450;2023-08-30T09:44:59;0.50;;;0.20;;
36817;SDS011;22761;51.542;16.450;2023-08-30T09:47:27;0.70;;;0.30;;
36817;SDS011;22761;51.542;16.450;2023-08-30T09:49:55;0.40;;;0.20;;
36817;SDS011;22761;51.542;16.450;2023-08-30T09:52:25;0.40;;;0.30;;
36817;SDS011;22761;51.542;16.450;2023-08-30T09:57:20;0.10;;;0.10;;
36817;SDS011;22761;51.542;16.450;2023-08-30T09:59:48;0.70;;;0.20;;
36817;SDS011;22761;51.542;16.450;2023-08-30T10:02:15;0.10;;;0.10;;
36817;SDS011;22761;51.542;16.450;2023-08-30T10:04:43;0.20;;;0.20;;
36817;SDS011;22761;51.542;16.450;2023-08-30T10:07:11;1.00;;;0.30;;
36817;SDS011;22761;51.542;16.450;2023-08-30T10:09:38;0.50;;;0.30;;
36817;SDS011;22761;51.542;16.450;2023-08-30T10:12:28;0.60;;;0.20;;
36817;SDS011;22761;51.542;16.450;2023-08-30T10:14:55;1.00;;;0.40;;
36817;SDS011;22761;51.542;16.450;2023-08-30T10:17:28;0.90;;;0.40;;
36817;SDS011;22761;51.542;16.450;2023-08-30T10:19:58;0.50;;;0.40;;
36817;SDS011;22761;51.542;16.450;2023-08-30T10:22:25;0.30;;;0.30;;
36817;SDS011;22761;51.542;16.450;2023-08-30T10:24:54;0.70;;;0.40;;
36817;SDS011;22761;51.542;16.450;2023-08-30T10:27:29;0.90;;;0.30;;
36817;SDS011;22761;51.542;16.450;2023-08-30T10:30:01;0.40;;;0.30;;
36817;SDS011;22761;51.542;16.450;2023-08-30T10:32:30;0.70;;;0.40;;
36817;SDS011;22761;51.542;16.450;2023-08-30T10:35:00;0.50;;;0.50;;
36817;SDS011;22761;51.542;16.450;2023-08-30T10:37:29;0.60;;;0.40;;
36817;SDS011;22761;51.542;16.450;2023-08-30T10:40:00;0.80;;;0.30;;
36817;SDS011;22761;51.542;16.450;2023-08-30T10:42:30;1.70;;;0.40;;
36817;SDS011;22761;51.542;16.450;2023-08-30T10:44:58;0.80;;;0.50;;
36817;SDS011;22761;51.542;16.450;2023-08-30T10:47:30;0.60;;;0.60;;
36817;SDS011;22761;51.542;16.450;2023-08-30T10:49:59;0.40;;;0.40;;
36817;SDS011;22761;51.542;16.450;2023-08-30T10:52:27;2.50;;;0.50;;
36817;SDS011;22761;51.542;16.450;2023-08-30T10:55:04;2.50;;;0.70;;
36817;SDS011;22761;51.542;16.450;2023-08-30T10:57:42;0.80;;;0.60;;
36817;SDS011;22761;51.542;16.450;2023-08-30T11:00:22;1.10;;;0.70;;
36817;SDS011;22761;51.542;16.450;2023-08-30T11:02:50;0.70;;;0.70;;
36817;SDS011;22761;51.542;16.450;2023-08-30T11:05:22;0.50;;;0.40;;
36817;SDS011;22761;51.542;16.450;2023-08-30T11:07:51;2.80;;;0.60;;
36817;SDS011;22761;51.542;16.450;2023-08-30T11:10:19;1.30;;;0.70;;
36817;SDS011;22761;51.542;16.450;2023-08-30T11:12:46;1.00;;;0.60;;
36817;SDS011;22761;51.542;16.450;2023-08-30T11:15:16;0.80;;;0.60;;
36817;SDS011;22761;51.542;16.450;2023-08-30T11:17:43;1.90;;;0.90;;
36817;SDS011;22761;51.542;16.450;2023-08-30T11:20:14;1.70;;;0.50;;
36817;SDS011;22761;51.542;16.450;2023-08-30T11:22:47;0.80;;;0.50;;
36817;SDS011;22761;51.542;16.450;2023-08-30T11:25:14;0.40;;;0.30;;
36817;SDS011;22761;51.542;16.450;2023-08-30T11:27:43;0.50;;;0.50;;
36817;SDS011;22761;51.542;16.450;2023-08-30T11:30:10;2.40;;;0.50;;
36817;SDS011;22761;51.542;16.450;2023-08-30T11:32:39;0.90;;;0.50;;
36817;SDS011;22761;51.542;16.450;2023-08-30T11:35:07;0.40;;;0.40;;
36817;SDS011;22761;51.542;16.450;2023-08-30T11:37:35;0.90;;;0.30;;
36817;SDS011;22761;51.542;16.450;2023-08-30T11:40:03;1.40;;;0.40;;
36817;SDS011;22761;51.542;16.450;2023-08-30T11:42:32;4.70;;;0.40;;
36817;SDS011;22761;51.542;16.450;2023-08-30T11:44:59;1.20;;;0.50;;
36817;SDS011;22761;51.542;16.450;2023-08-30T11:47:27;0.70;;;0.40;;
36817;SDS011;22761;51.542;16.450;2023-08-30T11:49:55;0.90;;;0.50;;
36817;SDS011;22761;51.542;16.450;2023-08-30T11:52:23;1.10;;;0.40;;
36817;SDS011;22761;51.542;16.450;2023-08-30T11:54:51;1.10;;;0.50;;
36817;SDS011;22761;51.542;16.450;2023-08-30T11:57:18;0.70;;;0.50;;
36817;SDS011;22761;51.542;16.450;2023-08-30T11:59:46;0.50;;;0.40;;
36817;SDS011;22761;51.542;16.450;2023-08-30T12:02:15;0.80;;;0.50;;
36817;SDS011;22761;51.542;16.450;2023-08-30T12:04:43;0.70;;;0.50;;
36817;SDS011;22761;51.542;16.450;2023-08-30T12:07:25;0.50;;;0.40;;
36817;SDS011;22761;51.542;16.450;2023-08-30T12:09:52;0.70;;;0.50;;
36817;SDS011;22761;51.542;16.450;2023-08-30T12:12:22;0.70;;;0.50;;
36817;SDS011;22761;51.542;16.450;2023-08-30T12:14:57;2.90;;;0.60;;
36817;SDS011;22761;51.542;16.450;2023-08-30T12:17:24;1.00;;;0.60;;
36817;SDS011;22761;51.542;16.450;2023-08-30T12:19:57;1.30;;;0.80;;
36817;SDS011;22761;51.542;16.450;2023-08-30T12:22:45;0.90;;;0.50;;
36817;SDS011;22761;51.542;16.450;2023-08-30T12:25:15;0.50;;;0.50;;
36817;SDS011;22761;51.542;16.450;2023-08-30T12:27:46;0.90;;;0.80;;
36817;SDS011;22761;51.542;16.450;2023-08-30T12:30:14;1.00;;;0.70;;
36817;SDS011;22761;51.542;16.450;2023-08-30T12:32:43;0.70;;;0.60;;
36817;SDS011;22761;51.542;16.450;2023-08-30T12:35:11;2.30;;;1.00;;
36817;SDS011;22761;51.542;16.450;2023-08-30T12:37:37;1.30;;;0.80;;
36817;SDS011;22761;51.542;16.450;2023-08-30T12:40:05;1.00;;;0.70;;
36817;SDS011;22761;51.542;16.450;2023-08-30T12:42:33;0.70;;;0.70;;
36817;SDS011;22761;51.542;16.450;2023-08-30T12:45:00;1.00;;;0.70;;
36817;SDS011;22761;51.542;16.450;2023-08-30T12:47:27;2.00;;;1.10;;
36817;SDS011;22761;51.542;16.450;2023-08-30T12:49:56;1.30;;;0.70;;
36817;SDS011;22761;51.542;16.450;2023-08-30T12:52:23;1.00;;;0.90;;
36817;SDS011;22761;51.542;16.450;2023-08-30T12:54:50;1.10;;;0.70;;
36817;SDS011;22761;51.542;16.450;2023-08-30T12:57:18;1.40;;;1.10;;
36817;SDS011;22761;51.542;16.450;2023-08-30T12:59:45;0.60;;;0.60;;
36817;SDS011;22761;51.542;16.450;2023-08-30T13:02:13;1.30;;;1.10;;
36817;SDS011;22761;51.542;16.450;2023-08-30T13:04:40;1.80;;;1.20;;
36817;SDS011;22761;51.542;16.450;2023-08-30T13:07:07;2.50;;;1.10;;
36817;SDS011;22761;51.542;16.450;2023-08-30T13:09:34;1.80;;;1.20;;
36817;SDS011;22761;51.542;16.450;2023-08-30T13:12:01;2.20;;;1.10;;
36817;SDS011;22761;51.542;16.450;2023-08-30T13:14:28;1.00;;;1.00;;
36817;SDS011;22761;51.542;16.450;2023-08-30T13:16:56;2.70;;;1.40;;
36817;SDS011;22761;51.542;16.450;2023-08-30T13:19:23;0.80;;;0.80;;
36817;SDS011;22761;51.542;16.450;2023-08-30T13:21:50;2.50;;;1.30;;
36817;SDS011;22761;51.542;16.450;2023-08-30T13:24:17;2.50;;;1.10;;
36817;SDS011;22761;51.542;16.450;2023-08-30T13:26:44;1.10;;;1.00;;
36817;SDS011;22761;51.542;16.450;2023-08-30T13:29:11;1.80;;;1.30;;
36817;SDS011;22761;51.542;16.450;2023-08-30T13:31:38;1.80;;;1.10;;
36817;SDS011;22761;51.542;16.450;2023-08-30T13:34:05;1.70;;;1.10;;
36817;SDS011;22761;51.542;16.450;2023-08-30T13:36:32;1.20;;;1.00;;
36817;SDS011;22761;51.542;16.450;2023-08-30T13:38:59;1.10;;;1.00;;
36817;SDS011;22761;51.542;16.450;2023-08-30T13:41:27;2.10;;;1.20;;
36817;SDS011;22761;51.542;16.450;2023-08-30T13:43:54;1.60;;;1.00;;
36817;SDS011;22761;51.542;16.450;2023-08-30T13:46:24;1.80;;;1.10;;
36817;SDS011;22761;51.542;16.450;2023-08-30T13:48:51;1.20;;;0.90;;
36817;SDS011;22761;51.542;16.450;2023-08-30T13:51:21;1.80;;;1.20;;
36817;SDS011;22761;51.542;16.450;2023-08-30T13:53:49;1.20;;;1.00;;
36817;SDS011;22761;51.542;16.450;2023-08-30T13:56:17;2.10;;;0.90;;
36817;SDS011;22761;51.542;16.450;2023-08-30T13:58:45;1.90;;;1.20;;
36817;SDS011;22761;51.542;16.450;2023-08-30T14:01:12;1.90;;;1.40;;
36817;SDS011;22761;51.542;16.450;2023-08-30T14:03:39;2.10;;;1.30;;
36817;SDS011;22761;51.542;16.450;2023-08-30T14:06:06;1.20;;;1.10;;
36817;SDS011;22761;51.542;16.450;2023-08-30T14:08:33;1.20;;;1.10;;
36817;SDS011;22761;51.542;16.450;2023-08-30T14:11:00;1.30;;;1.20;;
36817;SDS011;22761;51.542;16.450;2023-08-30T14:13:27;1.60;;;1.10;;
36817;SDS011;22761;51.542;16.450;2023-08-30T14:16:00;1.10;;;0.90;;
36817;SDS011;22761;51.542;16.450;2023-08-30T14:18:27;2.30;;;1.00;;
36817;SDS011;22761;51.542;16.450;2023-08-30T14:20:57;1.00;;;0.90;;
36817;SDS011;22761;51.542;16.450;2023-08-30T14:23:26;2.00;;;1.20;;
36817;SDS011;22761;51.542;16.450;2023-08-30T14:25:57;0.90;;;0.80;;
36817;SDS011;22761;51.542;16.450;2023-08-30T14:28:24;1.60;;;1.00;;
36817;SDS011;22761;51.542;16.450;2023-08-30T14:30:52;2.00;;;1.20;;
36817;SDS011;22761;51.542;16.450;2023-08-30T14:33:20;1.60;;;0.80;;
36817;SDS011;22761;51.542;16.450;2023-08-30T14:35:47;3.40;;;1.70;;
36817;SDS011;22761;51.542;16.450;2023-08-30T14:38:14;2.50;;;1.30;;
36817;SDS011;22761;51.542;16.450;2023-08-30T14:40:41;1.10;;;1.00;;
36817;SDS011;22761;51.542;16.450;2023-08-30T14:43:08;1.30;;;1.20;;
36817;SDS011;22761;51.542;16.450;2023-08-30T14:45:35;1.80;;;1.20;;
36817;SDS011;22761;51.542;16.450;2023-08-30T14:48:03;1.90;;;1.40;;
36817;SDS011;22761;51.542;16.450;2023-08-30T14:50:30;3.80;;;1.80;;